Time;durP1;ratioP1;P1;durP2;ratioP2;P2;SDS_P1;SDS_P2;PMS_P1;PMS_P2;Temp;Humidity;BMP_temperature;BMP_pressure;BME280_temperature;BME280_humidity;BME280_pressure;Samples;Min_cycle;Max_cycle;Signal;HPM_P1;HPM_P2
2023/09/17 00:00:09;;;;;;;0.10;0.10;;;20.30;99.90;;;;;;4986020;28;20187;-82
2023/09/17 00:02:35;;;;;;;1.17;1.17;;;20.10;99.90;;;;;;4986530;28;20709;-82
2023/09/17 00:05:01;;;;;;;0.10;0.10;;;19.90;99.90;;;;;;4986302;28;20208;-82
2023/09/17 00:07:26;;;;;;;0.10;0.10;;;19.80;99.90;;;;;;4986669;28;20551;-81
2023/09/17 00:09:51;;;;;;;0.10;0.10;;;19.80;99.90;;;;;;4986848;28;20214;-82
2023/09/17 00:12:17;;;;;;;0.10;0.10;;;19.90;99.90;;;;;;4984072;28;20663;-81
2023/09/17 00:14:43;;;;;;;0.10;0.10;;;20.00;99.90;;;;;;4984295;28;20255;-81
2023/09/17 00:17:08;;;;;;;0.10;0.10;;;20.10;99.90;;;;;;4984665;28;20180;-81
2023/09/17 00:19:34;;;;;;;0.10;0.10;;;20.10;99.90;;;;;;4987261;28;20189;-82
2023/09/17 00:22:00;;;;;;;0.10;0.10;;;19.90;99.90;;;;;;4985327;28;20266;-82
2023/09/17 00:24:26;;;;;;;0.10;0.10;;;19.90;99.90;;;;;;4987352;28;20179;-81
2023/09/17 00:26:52;;;;;;;0.10;0.10;;;19.80;99.90;;;;;;4983389;28;20295;-82
2023/09/17 00:29:17;;;;;;;0.10;0.10;;;19.80;99.90;;;;;;4984209;28;20240;-82
2023/09/17 00:31:43;;;;;;;0.10;0.10;;;19.90;99.90;;;;;;4986923;28;20196;-81
2023/09/17 00:34:09;;;;;;;0.10;0.10;;;20.00;99.90;;;;;;4985783;28;20221;-82
2023/09/17 00:36:34;;;;;;;0.10;0.10;;;19.80;99.90;;;;;;4992084;28;20215;-82
2023/09/17 00:39:00;;;;;;;0.10;0.10;;;19.80;99.90;;;;;;4985443;28;20203;-81
2023/09/17 00:41:26;;;;;;;0.10;0.10;;;19.70;99.90;;;;;;4992417;28;20187;-81
2023/09/17 00:43:51;;;;;;;0.10;0.10;;;19.70;99.90;;;;;;4986225;28;20195;-81
2023/09/17 00:46:19;;;;;;;0.10;0.10;;;19.50;99.90;;;;;;4985297;28;20573;-82
2023/09/17 00:48:45;;;;;;;0.10;0.10;;;19.40;99.90;;;;;;4986366;28;20235;-82
2023/09/17 00:51:10;;;;;;;0.10;0.10;;;19.50;99.90;;;;;;4986282;28;20192;-81
2023/09/17 00:53:36;;;;;;;0.10;0.10;;;19.60;99.90;;;;;;4981325;28;20239;-81
2023/09/17 00:56:02;;;;;;;0.10;0.10;;;19.70;99.90;;;;;;4987056;28;20210;-82
2023/09/17 00:58:29;;;;;;;0.10;0.10;;;19.80;99.90;;;;;;4986844;28;20181;-81
2023/09/17 01:00:57;;;;;;;0.10;0.10;;;19.80;99.90;;;;;;4991737;28;20194;-81
2023/09/17 01:03:22;;;;;;;0.10;0.10;;;19.90;99.90;;;;;;4985293;28;20186;-81
2023/09/17 01:05:49;;;;;;;0.10;0.10;;;19.90;99.90;;;;;;4986221;28;20698;-82
2023/09/17 01:08:15;;;;;;;0.10;0.10;;;20.00;99.90;;;;;;4991958;28;20270;-82
2023/09/17 01:10:41;;;;;;;0.10;0.10;;;20.00;99.90;;;;;;4988897;28;20187;-82
2023/09/17 01:13:08;;;;;;;0.10;0.10;;;20.00;99.90;;;;;;4988142;28;20200;-81
2023/09/17 01:15:34;;;;;;;0.10;0.10;;;19.60;99.90;;;;;;4988435;28;20192;-82
2023/09/17 01:18:01;;;;;;;0.10;0.10;;;19.60;99.90;;;;;;4988285;28;20192;-81
2023/09/17 01:20:31;;;;;;;0.10;0.10;;;19.60;99.90;;;;;;4987939;28;20180;-82
2023/09/17 01:23:03;;;;;;;0.10;0.10;;;19.70;99.90;;;;;;4986571;28;20196;-82
2023/09/17 01:25:42;;;;;;;0.10;0.10;;;19.80;99.90;;;;;;4994072;28;20199;-81
2023/09/17 01:28:14;;;;;;;0.10;0.10;;;19.80;99.90;;;;;;4993709;28;20231;-82
2023/09/17 01:30:41;;;;;;;0.10;0.10;;;19.80;99.90;;;;;;4988276;28;20184;-81
2023/09/17 01:33:10;;;;;;;0.10;0.10;;;19.80;99.90;;;;;;5009431;28;20203;-81
2023/09/17 01:36:02;;;;;;;0.10;0.10;;;19.90;99.90;;;;;;5001503;28;20208;-82
2023/09/17 01:38:33;;;;;;;0.10;0.10;;;19.90;99.90;;;;;;4991349;28;20222;-81
2023/09/17 01:41:02;;;;;;;0.10;0.10;;;19.60;99.90;;;;;;5002690;28;20185;-81
2023/09/17 01:43:29;;;;;;;0.10;0.10;;;19.60;99.90;;;;;;4985510;28;20223;-83
2023/09/17 01:45:55;;;;;;;0.10;0.10;;;19.50;99.90;;;;;;4980951;28;20212;-83
2023/09/17 01:48:22;;;;;;;0.10;0.10;;;19.60;99.90;;;;;;4982146;28;20812;-83
2023/09/17 01:50:50;;;;;;;0.10;0.10;;;19.60;99.90;;;;;;4982136;28;20283;-83
2023/09/17 01:53:16;;;;;;;0.10;0.10;;;19.50;99.90;;;;;;4981264;28;20206;-83
2023/09/17 01:55:41;;;;;;;0.10;0.10;;;19.20;99.90;;;;;;4989896;28;20204;-84
2023/09/17 01:58:10;;;;;;;0.10;0.10;;;19.20;99.90;;;;;;4982567;28;20231;-83
2023/09/17 02:00:36;;;;;;;0.10;0.10;;;19.40;99.90;;;;;;4981353;28;20266;-85
2023/09/17 02:03:05;;;;;;;0.10;0.10;;;19.60;99.90;;;;;;4982332;28;20732;-84
2023/09/17 02:05:30;;;;;;;0.10;0.10;;;19.70;99.90;;;;;;4989339;28;20214;-83
2023/09/17 02:07:56;;;;;;;0.10;0.10;;;19.80;99.90;;;;;;4982262;28;21952;-83
2023/09/17 02:10:21;;;;;;;0.10;0.10;;;19.90;99.90;;;;;;4980222;28;20605;-83
2023/09/17 02:12:47;;;;;;;0.10;0.10;;;20.00;99.90;;;;;;4989356;28;20187;-83
2023/09/17 02:15:13;;;;;;;0.10;0.10;;;19.90;99.90;;;;;;4982461;28;20543;-83
2023/09/17 02:17:39;;;;;;;0.10;0.10;;;20.00;99.90;;;;;;4982258;28;20192;-84
2023/09/17 02:20:11;;;;;;;0.10;0.10;;;20.00;99.90;;;;;;4988322;28;20188;-83
2023/09/17 02:22:39;;;;;;;0.10;0.10;;;20.10;99.90;;;;;;4988804;28;20202;-83
2023/09/17 02:25:06;;;;;;;0.10;0.10;;;20.10;99.90;;;;;;4983260;28;20203;-83
2023/09/17 02:27:32;;;;;;;0.10;0.10;;;20.10;99.90;;;;;;4981468;28;20270;-84
2023/09/17 02:29:57;;;;;;;0.10;0.10;;;20.20;99.90;;;;;;4981703;28;20198;-83
2023/09/17 02:32:23;;;;;;;0.10;0.10;;;20.20;99.90;;;;;;4982254;28;20185;-82
2023/09/17 02:34:49;;;;;;;0.10;0.10;;;20.20;99.90;;;;;;4981274;28;20627;-84
2023/09/17 02:37:14;;;;;;;0.10;0.10;;;20.20;99.90;;;;;;4982724;28;20179;-84
2023/09/17 02:39:40;;;;;;;0.10;0.10;;;20.20;99.90;;;;;;4980809;28;20563;-83
2023/09/17 02:42:06;;;;;;;0.10;0.10;;;20.10;99.90;;;;;;4988406;28;20199;-83
2023/09/17 02:44:32;;;;;;;0.10;0.10;;;20.10;99.90;;;;;;4997419;28;20175;-83
2023/09/17 02:46:57;;;;;;;0.10;0.10;;;20.10;99.90;;;;;;4981281;28;20231;-84
2023/09/17 02:49:23;;;;;;;0.10;0.10;;;20.00;99.90;;;;;;4989051;28;20192;-84
2023/09/17 02:51:50;;;;;;;0.10;0.10;;;20.00;99.90;;;;;;4977234;28;20184;-84
2023/09/17 02:54:15;;;;;;;0.10;0.10;;;20.00;99.90;;;;;;4979454;28;20691;-84
2023/09/17 02:56:42;;;;;;;0.10;0.10;;;19.90;99.90;;;;;;4982277;28;20204;-84
2023/09/17 02:59:08;;;;;;;0.10;0.10;;;19.90;99.90;;;;;;4995144;28;20188;-84
2023/09/17 03:01:35;;;;;;;0.10;0.10;;;20.00;99.90;;;;;;4982792;28;20183;-83
2023/09/17 03:04:01;;;;;;;0.10;0.10;;;20.00;99.90;;;;;;4981310;28;20183;-84
2023/09/17 03:06:26;;;;;;;0.10;0.10;;;20.00;99.90;;;;;;4987887;28;20580;-84
2023/09/17 03:08:52;;;;;;;0.10;0.10;;;20.00;99.90;;;;;;4979847;28;20187;-82
2023/09/17 03:11:17;;;;;;;0.10;0.10;;;19.80;99.90;;;;;;4981663;28;20199;-84
2023/09/17 03:13:47;;;;;;;0.10;0.10;;;19.70;99.90;;;;;;4987112;28;20288;-83
2023/09/17 03:16:15;;;;;;;0.10;0.10;;;19.70;99.90;;;;;;4996680;28;20193;-83
2023/09/17 03:18:42;;;;;;;0.10;0.10;;;19.50;99.90;;;;;;4979804;28;20231;-84
2023/09/17 03:21:08;;;;;;;0.10;0.10;;;19.40;99.90;;;;;;4981108;28;20177;-84
2023/09/17 03:23:33;;;;;;;0.10;0.10;;;19.50;99.90;;;;;;4980988;28;20186;-84
2023/09/17 03:26:01;;;;;;;0.10;0.10;;;19.60;99.90;;;;;;4987393;28;20211;-84
2023/09/17 03:28:27;;;;;;;0.10;0.10;;;19.40;99.90;;;;;;4980739;28;20191;-83
2023/09/17 03:30:53;;;;;;;0.10;0.10;;;19.20;99.90;;;;;;4980798;28;20184;-83
2023/09/17 03:33:19;;;;;;;0.10;0.10;;;19.30;99.90;;;;;;4994872;28;20375;-84
2023/09/17 03:35:44;;;;;;;0.10;0.10;;;19.10;99.90;;;;;;4980686;28;20214;-84
2023/09/17 03:38:10;;;;;;;0.10;0.10;;;19.20;99.90;;;;;;4979312;28;20265;-83
2023/09/17 03:40:36;;;;;;;0.10;0.10;;;19.10;99.90;;;;;;4979189;28;20209;-83
2023/09/17 03:43:01;;;;;;;0.10;0.10;;;19.10;99.90;;;;;;4979120;28;20204;-83
2023/09/17 03:45:27;;;;;;;0.10;0.10;;;19.20;99.90;;;;;;4987433;28;20227;-84
2023/09/17 03:47:52;;;;;;;0.10;0.10;;;19.20;99.90;;;;;;4980733;28;20736;-84
2023/09/17 03:50:18;;;;;;;0.10;0.10;;;19.20;99.90;;;;;;4978368;28;20203;-83
2023/09/17 03:52:46;;;;;;;0.10;0.10;;;19.10;99.90;;;;;;4979794;28;20192;-84
2023/09/17 03:55:13;;;;;;;0.10;0.10;;;19.00;99.90;;;;;;4980260;28;20687;-83
2023/09/17 03:57:39;;;;;;;0.10;0.10;;;18.90;99.90;;;;;;4982043;28;20198;-84
2023/09/17 04:00:07;;;;;;;0.10;0.10;;;19.00;99.90;;;;;;4986879;28;20249;-84
2023/09/17 04:02:37;;;;;;;0.10;0.10;;;19.20;99.90;;;;;;4980134;28;20176;-83
2023/09/17 04:05:11;;;;;;;0.10;0.10;;;19.20;99.90;;;;;;4987038;28;20782;-83
2023/09/17 04:07:38;;;;;;;0.10;0.10;;;19.10;99.90;;;;;;4978984;28;20186;-84
2023/09/17 04:10:05;;;;;;;0.10;0.10;;;19.10;99.90;;;;;;4980861;28;20195;-83
2023/09/17 04:12:32;;;;;;;0.10;0.10;;;19.10;99.90;;;;;;4986551;28;20234;-84
2023/09/17 04:14:58;;;;;;;0.10;0.10;;;19.20;99.90;;;;;;4980556;28;20580;-83
2023/09/17 04:17:24;;;;;;;0.10;0.10;;;19.20;99.90;;;;;;4980176;28;20193;-82
2023/09/17 04:19:50;;;;;;;0.10;0.10;;;19.20;99.90;;;;;;4979550;28;20282;-82
2023/09/17 04:22:16;;;;;;;0.10;0.10;;;19.40;99.90;;;;;;4979450;28;20203;-82
2023/09/17 04:24:42;;;;;;;0.10;0.10;;;19.50;99.90;;;;;;4989080;28;20243;-82
2023/09/17 04:27:08;;;;;;;0.10;0.10;;;19.60;99.90;;;;;;4981637;28;20738;-82
2023/09/17 04:29:34;;;;;;;0.10;0.10;;;19.70;99.90;;;;;;4980366;28;20544;-81
2023/09/17 04:31:59;;;;;;;0.10;0.10;;;19.70;99.90;;;;;;4983646;28;20337;-82
2023/09/17 04:34:25;;;;;;;0.10;0.10;;;19.80;99.90;;;;;;4980737;28;20294;-82
2023/09/17 04:36:51;;;;;;;0.10;0.10;;;19.80;99.90;;;;;;4985231;28;20576;-83
2023/09/17 04:39:17;;;;;;;0.10;0.10;;;19.80;99.90;;;;;;4982015;28;20187;-82
2023/09/17 04:41:43;;;;;;;0.10;0.10;;;19.70;99.90;;;;;;4978548;28;20192;-82
2023/09/17 04:44:10;;;;;;;0.10;0.10;;;19.60;99.90;;;;;;4976629;28;20184;-82
2023/09/17 04:46:37;;;;;;;0.10;0.10;;;19.70;99.90;;;;;;4977435;28;20212;-83
2023/09/17 04:49:03;;;;;;;0.10;0.10;;;19.70;99.90;;;;;;4978075;28;20195;-83
2023/09/17 04:51:28;;;;;;;0.10;0.10;;;19.60;99.90;;;;;;4984394;28;20187;-83
2023/09/17 04:53:54;;;;;;;0.10;0.10;;;19.70;99.90;;;;;;4979083;28;20208;-83
2023/09/17 04:56:19;;;;;;;0.10;0.10;;;19.80;99.90;;;;;;4984663;28;20254;-82
2023/09/17 04:58:45;;;;;;;0.10;0.10;;;19.60;99.90;;;;;;4973607;28;20198;-82
2023/09/17 05:01:12;;;;;;;0.10;0.10;;;19.30;99.90;;;;;;4976803;28;20598;-83
2023/09/17 05:03:38;;;;;;;0.10;0.10;;;19.30;99.90;;;;;;4977504;28;20230;-82
2023/09/17 05:06:03;;;;;;;0.10;0.10;;;19.40;99.90;;;;;;4996554;28;20211;-83
2023/09/17 05:08:29;;;;;;;0.10;0.10;;;19.20;99.90;;;;;;4983929;28;20191;-82
2023/09/17 05:10:54;;;;;;;0.10;0.10;;;19.30;99.90;;;;;;4985414;28;20218;-82
2023/09/17 05:13:20;;;;;;;0.10;0.10;;;19.40;99.90;;;;;;4983220;28;20212;-83
2023/09/17 05:15:46;;;;;;;0.10;0.10;;;19.40;99.90;;;;;;4979907;28;20211;-84
2023/09/17 05:18:11;;;;;;;0.10;0.10;;;19.50;99.90;;;;;;4987567;28;20212;-83
2023/09/17 05:20:39;;;;;;;0.10;0.10;;;19.50;99.90;;;;;;4986058;28;20210;-83
2023/09/17 05:23:04;;;;;;;0.10;0.10;;;19.50;99.90;;;;;;4978128;28;20185;-83
2023/09/17 05:25:30;;;;;;;0.10;0.10;;;19.50;99.90;;;;;;4986408;28;20235;-83
2023/09/17 05:27:55;;;;;;;0.10;0.10;;;19.50;99.90;;;;;;4979095;28;20195;-82
2023/09/17 05:30:21;;;;;;;0.10;0.10;;;19.40;99.90;;;;;;4983613;28;20267;-83
2023/09/17 05:32:46;;;;;;;0.10;0.10;;;19.40;99.90;;;;;;4975872;28;20271;-83
2023/09/17 05:35:12;;;;;;;0.10;0.10;;;19.30;99.90;;;;;;4979585;28;20205;-82
2023/09/17 05:37:38;;;;;;;0.10;0.10;;;19.30;99.90;;;;;;4978368;28;20196;-83
2023/09/17 05:40:04;;;;;;;0.10;0.10;;;19.30;99.90;;;;;;4976489;28;20192;-84
2023/09/17 05:42:31;;;;;;;0.10;0.10;;;19.20;99.90;;;;;;4977747;28;20802;-83
2023/09/17 05:44:56;;;;;;;0.10;0.10;;;19.20;99.90;;;;;;4979075;28;20258;-84
2023/09/17 05:47:22;;;;;;;0.10;0.10;;;19.20;99.90;;;;;;4978655;28;20270;-83
2023/09/17 05:49:47;;;;;;;0.10;0.10;;;19.10;99.90;;;;;;4977511;28;20198;-84
2023/09/17 05:52:13;;;;;;;0.10;0.10;;;19.00;99.90;;;;;;4977740;28;20199;-83
2023/09/17 05:54:39;;;;;;;0.10;0.10;;;18.90;99.90;;;;;;4976894;28;20207;-83
2023/09/17 05:57:04;;;;;;;0.10;0.10;;;18.80;99.90;;;;;;4988889;28;20306;-81
2023/09/17 05:59:30;;;;;;;0.10;0.10;;;18.80;99.90;;;;;;4985183;28;20175;-82
2023/09/17 06:01:57;;;;;;;0.10;0.10;;;18.80;99.90;;;;;;4982081;28;20615;-82
2023/09/17 06:04:22;;;;;;;0.10;0.10;;;18.90;99.90;;;;;;4983722;28;20180;-82
2023/09/17 06:06:48;;;;;;;0.10;0.10;;;19.10;99.90;;;;;;4981953;28;20651;-82
2023/09/17 06:09:13;;;;;;;0.10;0.10;;;19.10;99.90;;;;;;4991020;28;20188;-82
2023/09/17 06:11:39;;;;;;;0.10;0.10;;;19.20;99.90;;;;;;4982633;28;20275;-82
2023/09/17 06:14:05;;;;;;;0.10;0.10;;;19.30;99.90;;;;;;4983815;28;20218;-83
2023/09/17 06:16:30;;;;;;;0.10;0.10;;;19.30;99.90;;;;;;4983589;28;20219;-82
2023/09/17 06:18:56;;;;;;;0.10;0.10;;;19.30;99.90;;;;;;4983934;28;20191;-82
2023/09/17 06:21:21;;;;;;;0.10;0.10;;;19.50;99.90;;;;;;4983248;28;20207;-83
2023/09/17 06:23:47;;;;;;;0.10;0.10;;;19.40;99.90;;;;;;4981906;28;20187;-83
2023/09/17 06:26:12;;;;;;;0.10;0.10;;;19.20;99.90;;;;;;4981491;28;20212;-82
2023/09/17 06:28:38;;;;;;;0.10;0.10;;;19.10;99.90;;;;;;4981737;28;20196;-82
2023/09/17 06:31:03;;;;;;;0.10;0.10;;;19.10;99.90;;;;;;4982436;28;20227;-83
2023/09/17 06:33:30;;;;;;;0.10;0.10;;;19.00;99.90;;;;;;4980223;28;20275;-82
2023/09/17 06:35:56;;;;;;;0.10;0.10;;;19.00;99.90;;;;;;4983507;28;20196;-83
2023/09/17 06:38:21;;;;;;;0.10;0.10;;;19.20;99.90;;;;;;4982530;28;21179;-83
2023/09/17 06:40:47;;;;;;;0.10;0.10;;;19.30;99.90;;;;;;4981810;28;20183;-82
2023/09/17 06:43:13;;;;;;;0.10;0.10;;;19.50;99.90;;;;;;4982429;28;20680;-82
2023/09/17 06:45:38;;;;;;;0.10;0.10;;;19.70;99.90;;;;;;4989116;28;20298;-82
2023/09/17 06:48:04;;;;;;;0.10;0.10;;;19.80;99.90;;;;;;4983102;28;20327;-82
2023/09/17 06:50:30;;;;;;;0.10;0.10;;;20.00;99.90;;;;;;4990952;28;20192;-82
2023/09/17 06:52:55;;;;;;;0.10;0.10;;;20.30;99.90;;;;;;4984319;28;20191;-82
2023/09/17 06:55:21;;;;;;;0.10;0.10;;;20.40;99.90;;;;;;4983809;28;20208;-82
2023/09/17 06:57:46;;;;;;;0.10;0.10;;;20.70;99.90;;;;;;4980061;28;20183;-82
2023/09/17 07:00:14;;;;;;;0.10;0.10;;;20.80;99.90;;;;;;4979843;28;20227;-82
2023/09/17 07:02:39;;;;;;;0.10;0.10;;;21.00;99.90;;;;;;4977802;28;20262;-81
2023/09/17 07:05:07;;;;;;;0.10;0.10;;;20.80;99.90;;;;;;4981718;28;20307;-86
2023/09/17 07:07:33;;;;;;;0.10;0.10;;;20.90;99.90;;;;;;4982301;28;20223;-81
2023/09/17 07:09:58;;;;;;;0.10;0.10;;;20.60;99.90;;;;;;4981488;28;20270;-82
2023/09/17 07:12:24;;;;;;;0.10;0.10;;;20.80;99.90;;;;;;4978081;28;20254;-83
2023/09/17 07:14:49;;;;;;;0.10;0.10;;;20.70;99.90;;;;;;4986828;28;20310;-84
2023/09/17 07:17:16;;;;;;;0.10;0.10;;;20.70;99.90;;;;;;4980857;28;20196;-82
2023/09/17 07:19:41;;;;;;;0.10;0.10;;;20.70;99.90;;;;;;4978217;28;20179;-83
2023/09/17 07:22:11;;;;;;;0.10;0.10;;;21.20;99.90;;;;;;4988312;28;20195;-82
2023/09/17 07:24:37;;;;;;;0.10;0.10;;;21.20;99.90;;;;;;4980094;28;20236;-83
2023/09/17 07:27:03;;;;;;;0.10;0.10;;;21.80;99.90;;;;;;4984978;28;20215;-83
2023/09/17 07:29:29;;;;;;;0.10;0.10;;;22.10;99.90;;;;;;4978020;28;20255;-83
2023/09/17 07:31:55;;;;;;;0.10;0.10;;;22.00;99.90;;;;;;4979704;28;20659;-82
2023/09/17 07:34:20;;;;;;;0.10;0.10;;;22.30;99.90;;;;;;4981262;28;20215;-83
2023/09/17 07:36:46;;;;;;;0.10;0.10;;;22.40;99.90;;;;;;4980304;28;20207;-83
2023/09/17 07:39:12;;;;;;;0.40;0.40;;;21.90;99.90;;;;;;4985999;28;20207;-83
2023/09/17 07:41:37;;;;;;;0.10;0.10;;;21.70;99.90;;;;;;4986078;28;20278;-83
2023/09/17 07:44:03;;;;;;;0.10;0.10;;;21.90;99.90;;;;;;4979326;28;20198;-82
2023/09/17 07:46:30;;;;;;;0.10;0.10;;;22.00;99.90;;;;;;4986220;28;20242;-83
2023/09/17 07:48:55;;;;;;;0.10;0.10;;;22.40;99.90;;;;;;4979494;28;20188;-83
2023/09/17 07:51:21;;;;;;;0.10;0.10;;;22.60;99.90;;;;;;4979872;28;20231;-82
2023/09/17 07:53:46;;;;;;;0.10;0.10;;;22.90;99.90;;;;;;4981102;28;20204;-83
2023/09/17 07:56:12;;;;;;;0.10;0.10;;;22.70;99.90;;;;;;4977994;28;20287;-84
2023/09/17 07:58:37;;;;;;;0.10;0.10;;;22.50;99.90;;;;;;4986912;28;20198;-82
2023/09/17 08:01:06;;;;;;;0.10;0.10;;;22.70;99.90;;;;;;4976664;28;20192;-83
2023/09/17 08:03:31;;;;;;;0.10;0.10;;;22.60;99.90;;;;;;4980533;28;20180;-83
2023/09/17 08:05:57;;;;;;;0.10;0.10;;;22.90;99.90;;;;;;4981279;28;20859;-83
2023/09/17 08:08:23;;;;;;;0.10;0.10;;;23.00;99.90;;;;;;4985517;28;20314;-83
2023/09/17 08:10:51;;;;;;;0.10;0.10;;;22.70;99.90;;;;;;4978655;28;20541;-82
2023/09/17 08:13:17;;;;;;;0.10;0.10;;;22.80;99.90;;;;;;4994167;28;20212;-83
2023/09/17 08:15:43;;;;;;;0.10;0.10;;;23.10;99.90;;;;;;4979423;28;20196;-82
2023/09/17 08:18:08;;;;;;;0.10;0.10;;;23.30;99.90;;;;;;4976741;28;20184;-83
2023/09/17 08:20:34;;;;;;;0.10;0.10;;;23.10;99.90;;;;;;4980555;28;20203;-81
2023/09/17 08:22:59;;;;;;;0.10;0.10;;;23.10;99.90;;;;;;4978253;28;20187;-79
2023/09/17 08:25:26;;;;;;;0.10;0.10;;;23.40;99.90;;;;;;4979140;28;20195;-78
2023/09/17 08:27:53;;;;;;;0.10;0.10;;;23.10;99.90;;;;;;4981193;28;20176;-79
2023/09/17 08:30:20;;;;;;;0.10;0.10;;;23.30;99.90;;;;;;4980225;28;20184;-79
2023/09/17 08:32:45;;;;;;;0.10;0.10;;;23.40;99.90;;;;;;4979368;28;20179;-79
2023/09/17 08:35:15;;;;;;;0.10;0.10;;;23.60;99.90;;;;;;4978158;28;20212;-80
2023/09/17 08:37:42;;;;;;;0.10;0.10;;;23.60;99.90;;;;;;4980892;28;20272;-80
2023/09/17 08:40:13;;;;;;;0.10;0.10;;;23.90;99.90;;;;;;4979471;28;20179;-81
2023/09/17 08:42:41;;;;;;;0.10;0.10;;;24.50;99.90;;;;;;4987219;28;20574;-80
2023/09/17 08:45:08;;;;;;;0.10;0.10;;;25.10;99.90;;;;;;4984301;28;20204;-80
2023/09/17 08:47:34;;;;;;;0.10;0.10;;;25.20;99.90;;;;;;4994180;28;20190;-80
2023/09/17 08:50:00;;;;;;;0.10;0.10;;;25.20;99.90;;;;;;4993378;28;20214;-80
2023/09/17 08:52:28;;;;;;;0.10;0.10;;;25.40;99.90;;;;;;4993273;28;20183;-80
2023/09/17 08:54:54;;;;;;;0.10;0.10;;;25.80;99.90;;;;;;5000595;28;20231;-83
2023/09/17 08:57:22;;;;;;;0.10;0.10;;;25.90;99.90;;;;;;4993983;28;20191;-80
2023/09/17 08:59:57;;;;;;;0.10;0.10;;;26.00;99.90;;;;;;4993879;28;20184;-80
2023/09/17 09:02:30;;;;;;;0.10;0.10;;;25.90;99.90;;;;;;4987875;28;20171;-80
2023/09/17 09:04:56;;;;;;;0.10;0.10;;;26.00;99.90;;;;;;4979079;28;20180;-80
2023/09/17 09:07:22;;;;;;;0.10;0.10;;;25.80;99.90;;;;;;4984897;28;22453;-81
2023/09/17 09:09:52;;;;;;;0.10;0.10;;;26.10;99.90;;;;;;4980281;28;20184;-81
2023/09/17 09:12:18;;;;;;;0.10;0.10;;;26.40;99.90;;;;;;4980489;28;20185;-81
2023/09/17 09:14:44;;;;;;;0.10;0.10;;;26.10;99.90;;;;;;4985541;28;20206;-81
2023/09/17 09:17:13;;;;;;;0.10;0.10;;;26.00;99.90;;;;;;4977980;28;20250;-81
2023/09/17 09:19:39;;;;;;;0.10;0.10;;;26.30;99.90;;;;;;4986055;28;20180;-81
2023/09/17 09:22:05;;;;;;;0.10;0.10;;;26.60;99.90;;;;;;4979005;28;20274;-82
2023/09/17 09:24:44;;;;;;;0.10;0.10;;;26.20;99.90;;;;;;4981963;28;20303;-81
2023/09/17 09:27:10;;;;;;;0.10;0.10;;;26.00;99.90;;;;;;4980517;28;20608;-81
2023/09/17 09:29:36;;;;;;;0.10;0.10;;;26.30;99.90;;;;;;4978722;28;20185;-81
2023/09/17 09:32:02;;;;;;;0.10;0.10;;;26.50;99.90;;;;;;4989630;28;20187;-81
2023/09/17 09:34:28;;;;;;;0.10;0.10;;;26.50;99.90;;;;;;4988845;28;20208;-81
2023/09/17 09:36:54;;;;;;;0.10;0.10;;;26.40;99.90;;;;;;4988007;28;20215;-82
2023/09/17 09:39:20;;;;;;;0.10;0.10;;;26.20;99.90;;;;;;4981375;28;20813;-82
2023/09/17 09:41:47;;;;;;;0.10;0.10;;;25.30;99.90;;;;;;4980086;28;20211;-82
2023/09/17 09:44:13;;;;;;;0.10;0.10;;;25.50;99.90;;;;;;4979733;28;20184;-82
2023/09/17 09:46:39;;;;;;;0.10;0.10;;;25.60;99.90;;;;;;4978773;28;20215;-82
2023/09/17 09:49:04;;;;;;;0.10;0.10;;;25.60;99.90;;;;;;4981314;28;20238;-82
2023/09/17 09:51:31;;;;;;;0.10;0.10;;;26.10;99.90;;;;;;4985219;28;20621;-80
2023/09/17 09:53:57;;;;;;;0.10;0.10;;;25.70;99.90;;;;;;4987765;28;20299;-80
2023/09/17 09:56:28;;;;;;;0.10;0.10;;;25.40;99.90;;;;;;4986004;28;20238;-82
2023/09/17 09:58:58;;;;;;;0.10;0.10;;;25.30;99.90;;;;;;4982490;28;20234;-80
2023/09/17 10:01:25;;;;;;;0.10;0.10;;;25.80;99.90;;;;;;4985970;28;20191;-81
2023/09/17 10:03:55;;;;;;;0.10;0.10;;;26.40;99.90;;;;;;4986337;28;20188;-82
2023/09/17 10:06:22;;;;;;;0.10;0.10;;;27.00;99.90;;;;;;4985426;28;20581;-82
2023/09/17 10:08:48;;;;;;;0.10;0.10;;;27.30;99.90;;;;;;4987509;28;20192;-82
2023/09/17 10:11:15;;;;;;;0.10;0.10;;;27.40;99.90;;;;;;4980809;28;20188;-82
2023/09/17 10:13:42;;;;;;;0.10;0.10;;;27.60;99.90;;;;;;4982962;28;20242;-83
2023/09/17 10:16:07;;;;;;;0.10;0.10;;;27.90;99.90;;;;;;4985782;28;20200;-81
2023/09/17 10:18:36;;;;;;;0.10;0.10;;;27.90;99.90;;;;;;4984326;28;20782;-80
2023/09/17 10:21:02;;;;;;;0.10;0.10;;;28.00;99.90;;;;;;4981433;28;20192;-82
2023/09/17 10:23:31;;;;;;;0.10;0.10;;;28.30;99.90;;;;;;4977891;28;20656;-82
2023/09/17 10:25:58;;;;;;;0.10;0.10;;;28.40;99.90;;;;;;4980115;28;20337;-82
2023/09/17 10:28:24;;;;;;;0.10;0.10;;;28.40;99.90;;;;;;4982076;28;20184;-81
2023/09/17 10:30:51;;;;;;;0.10;0.10;;;28.60;99.90;;;;;;4981709;28;20323;-81
2023/09/17 10:33:18;;;;;;;0.10;0.10;;;28.40;99.90;;;;;;4980746;28;20211;-81
2023/09/17 10:35:44;;;;;;;0.10;0.10;;;28.80;99.90;;;;;;4990919;28;20239;-80
2023/09/17 10:38:11;;;;;;;0.10;0.10;;;28.90;99.90;;;;;;4981586;28;20199;-80
2023/09/17 10:40:37;;;;;;;0.10;0.10;;;29.10;99.90;;;;;;4982116;28;20181;-81
2023/09/17 10:43:05;;;;;;;0.10;0.10;;;29.10;99.90;;;;;;4987807;28;20246;-80
2023/09/17 10:45:34;;;;;;;0.10;0.10;;;28.90;99.90;;;;;;4984876;28;20208;-80
2023/09/17 10:48:02;;;;;;;0.10;0.10;;;29.00;99.90;;;;;;4983504;28;20278;-80
2023/09/17 10:50:27;;;;;;;0.10;0.10;;;28.60;99.90;;;;;;4985284;28;20535;-80
2023/09/17 10:52:53;;;;;;;0.10;0.10;;;28.80;99.90;;;;;;4983418;28;20238;-80
2023/09/17 10:55:22;;;;;;;0.10;0.10;;;28.90;99.90;;;;;;4981383;28;20212;-81
2023/09/17 10:57:55;;;;;;;0.10;0.10;;;28.90;99.90;;;;;;4983836;28;20644;-80
2023/09/17 11:00:22;;;;;;;0.10;0.10;;;28.70;99.90;;;;;;4982409;28;20192;-80
2023/09/17 11:02:53;;;;;;;0.10;0.10;;;28.90;99.90;;;;;;4982205;28;20176;-81
2023/09/17 11:05:22;;;;;;;0.10;0.10;;;28.90;99.90;;;;;;4986234;28;20204;-81
2023/09/17 11:07:49;;;;;;;0.10;0.10;;;28.90;99.90;;;;;;4979061;28;20652;-82
2023/09/17 11:10:14;;;;;;;0.10;0.10;;;28.60;99.90;;;;;;4986290;28;20196;-81
2023/09/17 11:12:41;;;;;;;0.10;0.10;;;28.60;99.90;;;;;;4978387;28;20188;-82
2023/09/17 11:15:08;;;;;;;0.10;0.10;;;28.50;99.90;;;;;;4981571;28;20224;-81
2023/09/17 11:17:37;;;;;;;0.10;0.10;;;28.40;99.90;;;;;;4982069;28;20543;-81
2023/09/17 11:20:12;;;;;;;0.10;0.10;;;27.90;99.90;;;;;;4980351;28;20279;-82
2023/09/17 11:22:39;;;;;;;0.10;0.10;;;28.00;99.90;;;;;;4977115;28;20187;-80
2023/09/17 11:25:07;;;;;;;0.10;0.10;;;28.20;99.90;;;;;;4979057;28;20210;-82
2023/09/17 11:27:49;;;;;;;0.10;0.10;;;28.50;99.90;;;;;;4981471;28;20220;-81
2023/09/17 11:30:16;;;;;;;0.10;0.10;;;28.40;99.90;;;;;;4980941;28;20563;-81
2023/09/17 11:32:53;;;;;;;0.10;0.10;;;28.80;99.90;;;;;;4985763;28;20175;-81
2023/09/17 11:35:21;;;;;;;0.10;0.10;;;28.90;99.90;;;;;;4984846;28;20219;-81
2023/09/17 11:37:47;;;;;;;0.10;0.10;;;28.90;99.90;;;;;;4984755;28;20219;-81
2023/09/17 11:40:12;;;;;;;0.10;0.10;;;29.30;99.90;;;;;;4977234;28;20766;-80
2023/09/17 11:42:40;;;;;;;0.10;0.10;;;29.40;99.90;;;;;;4983661;28;20196;-80
2023/09/17 11:45:06;;;;;;;0.10;0.10;;;29.30;99.90;;;;;;4985275;28;20551;-80
2023/09/17 11:47:36;;;;;;;0.10;0.10;;;29.10;99.90;;;;;;4992653;28;20825;-80
2023/09/17 11:50:04;;;;;;;0.10;0.10;;;29.00;99.90;;;;;;4983756;28;20271;-80
2023/09/17 11:52:30;;;;;;;0.10;0.10;;;29.20;99.90;;;;;;4983978;28;20183;-80
2023/09/17 11:55:03;;;;;;;0.10;0.10;;;29.20;99.90;;;;;;4986013;28;20210;-81
2023/09/17 11:57:28;;;;;;;0.10;0.10;;;29.10;99.90;;;;;;4980404;28;20239;-81
2023/09/17 11:59:55;;;;;;;0.10;0.10;;;28.90;99.90;;;;;;4979630;28;20184;-82
2023/09/17 12:02:21;;;;;;;0.10;0.10;;;28.90;99.90;;;;;;4979912;28;20267;-81
2023/09/17 12:04:48;;;;;;;0.10;0.10;;;28.80;99.90;;;;;;4981227;28;20235;-80
2023/09/17 12:07:14;;;;;;;0.10;0.10;;;28.80;99.90;;;;;;4984123;28;20191;-80
2023/09/17 12:12:13;;;;;;;0.10;0.10;;;28.80;99.90;;;;;;4985368;28;20184;-81
2023/09/17 12:14:39;;;;;;;0.10;0.10;;;28.80;99.90;;;;;;4983330;28;20204;-80
2023/09/17 12:17:05;;;;;;;0.10;0.10;;;28.90;99.90;;;;;;4981430;28;20552;-81
2023/09/17 12:19:31;;;;;;;0.10;0.10;;;28.90;99.90;;;;;;4980091;28;20200;-81
2023/09/17 12:21:59;;;;;;;0.10;0.10;;;28.90;99.90;;;;;;4984703;28;20314;-81
2023/09/17 12:24:29;;;;;;;0.10;0.10;;;29.00;99.90;;;;;;4978181;28;20246;-81
2023/09/17 12:29:31;;;;;;;0.10;0.10;;;28.80;99.90;;;;;;4985984;28;20558;-80
2023/09/17 12:31:57;;;;;;;0.10;0.10;;;29.00;99.90;;;;;;4985382;28;20200;-80
2023/09/17 12:34:23;;;;;;;0.10;0.10;;;29.20;99.90;;;;;;4984716;28;20198;-80
2023/09/17 12:36:48;;;;;;;0.10;0.10;;;29.40;99.90;;;;;;4985327;28;21607;-80
2023/09/17 12:39:16;;;;;;;0.10;0.10;;;29.20;99.90;;;;;;4983517;28;20194;-80
2023/09/17 12:41:42;;;;;;;0.10;0.10;;;29.00;99.90;;;;;;4986706;28;20184;-80
2023/09/17 12:44:09;;;;;;;0.10;0.10;;;28.80;99.90;;;;;;4985851;28;20207;-81
2023/09/17 12:46:35;;;;;;;0.10;0.10;;;29.20;99.90;;;;;;4985584;28;20287;-81
2023/09/17 12:49:01;;;;;;;0.10;0.10;;;29.50;99.90;;;;;;4985700;28;20567;-81